sensor_id;sensor_type;location;lat;lon;timestamp;pressure;altitude;pressure_sealevel;temperature;humidity
51227;BME280;42714;48.260;10.980;2024-01-30T00:03:32;984.8;;;-0.5;94.7
51227;BME280;42714;48.260;10.980;2024-01-30T00:08:33;984.8;;;-0.5;94.7
51227;BME280;42714;48.260;10.980;2024-01-30T00:13:34;984.8;;;-0.6;94.9
51227;BME280;42714;48.260;10.980;2024-01-30T00:18:35;984.8;;;-0.6;95.0
51227;BME280;42714;48.260;10.980;2024-01-30T00:23:36;984.8;;;-0.6;95.4
51227;BME280;42714;48.260;10.980;2024-01-30T00:28:37;984.7;;;-0.5;95.7
51227;BME280;42714;48.260;10.980;2024-01-30T00:33:38;984.7;;;-0.6;95.9
51227;BME280;42714;48.260;10.980;2024-01-30T00:38:39;984.7;;;-0.6;96.0
51227;BME280;42714;48.260;10.980;2024-01-30T00:43:40;984.8;;;-0.7;96.1
51227;BME280;42714;48.260;10.980;2024-01-30T00:48:41;984.8;;;-0.7;96.4
51227;BME280;42714;48.260;10.980;2024-01-30T00:53:42;984.8;;;-0.7;96.6
51227;BME280;42714;48.260;10.980;2024-01-30T00:58:43;984.8;;;-0.7;96.7
51227;BME280;42714;48.260;10.980;2024-01-30T01:03:44;984.8;;;-0.7;96.9
51227;BME280;42714;48.260;10.980;2024-01-30T01:08:45;984.9;;;-0.7;97.1
51227;BME280;42714;48.260;10.980;2024-01-30T01:13:46;984.9;;;-0.7;97.2
51227;BME280;42714;48.260;10.980;2024-01-30T01:18:47;984.9;;;-0.7;97.2
51227;BME280;42714;48.260;10.980;2024-01-30T01:23:48;984.8;;;-0.7;97.2
51227;BME280;42714;48.260;10.980;2024-01-30T01:28:49;984.9;;;-0.7;97.2
51227;BME280;42714;48.260;10.980;2024-01-30T01:33:50;984.9;;;-0.8;97.1
51227;BME280;42714;48.260;10.980;2024-01-30T01:38:51;984.9;;;-0.8;96.8
51227;BME280;42714;48.260;10.980;2024-01-30T01:43:52;984.9;;;-0.9;96.7
51227;BME280;42714;48.260;10.980;2024-01-30T01:48:54;984.9;;;-0.9;96.5
51227;BME280;42714;48.260;10.980;2024-01-30T01:53:54;984.9;;;-1.0;96.6
51227;BME280;42714;48.260;10.980;2024-01-30T01:58:55;984.8;;;-0.9;96.7
51227;BME280;42714;48.260;10.980;2024-01-30T02:03:56;984.8;;;-0.8;96.6
51227;BME280;42714;48.260;10.980;2024-01-30T02:08:57;984.8;;;-0.9;96.5
51227;BME280;42714;48.260;10.980;2024-01-30T02:14:02;984.8;;;-0.8;96.6
51227;BME280;42714;48.260;10.980;2024-01-30T02:18:59;984.8;;;-0.9;96.4
51227;BME280;42714;48.260;10.980;2024-01-30T02:24:00;984.8;;;-0.9;96.6
51227;BME280;42714;48.260;10.980;2024-01-30T02:29:01;984.8;;;-0.9;96.3
51227;BME280;42714;48.260;10.980;2024-01-30T02:34:02;984.8;;;-0.9;96.0
51227;BME280;42714;48.260;10.980;2024-01-30T02:39:03;984.8;;;-1.0;95.8
51227;BME280;42714;48.260;10.980;2024-01-30T02:44:04;984.7;;;-1.1;95.6
51227;BME280;42714;48.260;10.980;2024-01-30T02:49:05;984.7;;;-1.1;95.6
51227;BME280;42714;48.260;10.980;2024-01-30T02:54:06;984.7;;;-1.2;95.7
51227;BME280;42714;48.260;10.980;2024-01-30T02:59:07;984.7;;;-1.2;95.7
51227;BME280;42714;48.260;10.980;2024-01-30T03:04:08;984.6;;;-1.3;95.9
51227;BME280;42714;48.260;10.980;2024-01-30T03:09:09;984.6;;;-1.3;96.1
51227;BME280;42714;48.260;10.980;2024-01-30T03:14:10;984.5;;;-1.2;96.3
51227;BME280;42714;48.260;10.980;2024-01-30T03:19:11;984.5;;;-1.2;96.4
51227;BME280;42714;48.260;10.980;2024-01-30T03:24:12;984.5;;;-1.2;96.6
51227;BME280;42714;48.260;10.980;2024-01-30T03:29:13;984.6;;;-1.2;96.7
51227;BME280;42714;48.260;10.980;2024-01-30T03:34:14;984.6;;;-1.2;96.5
51227;BME280;42714;48.260;10.980;2024-01-30T03:39:15;984.5;;;-1.2;96.5
51227;BME280;42714;48.260;10.980;2024-01-30T03:44:16;984.5;;;-1.2;96.2
51227;BME280;42714;48.260;10.980;2024-01-30T03:49:17;984.5;;;-1.3;96.0
51227;BME280;42714;48.260;10.980;2024-01-30T03:54:18;984.5;;;-1.3;95.9
51227;BME280;42714;48.260;10.980;2024-01-30T03:59:19;984.5;;;-1.4;96.1
51227;BME280;42714;48.260;10.980;2024-01-30T04:04:20;984.5;;;-1.3;96.2
51227;BME280;42714;48.260;10.980;2024-01-30T04:09:21;984.5;;;-1.4;96.1
51227;BME280;42714;48.260;10.980;2024-01-30T04:14:22;984.5;;;-1.4;96.3
51227;BME280;42714;48.260;10.980;2024-01-30T04:19:23;984.5;;;-1.4;96.6
51227;BME280;42714;48.260;10.980;2024-01-30T04:24:24;984.5;;;-1.3;96.7
51227;BME280;42714;48.260;10.980;2024-01-30T04:29:25;984.5;;;-1.3;96.9
51227;BME280;42714;48.260;10.980;2024-01-30T04:34:26;984.5;;;-1.3;97.0
51227;BME280;42714;48.260;10.980;2024-01-30T04:39:27;984.5;;;-1.2;97.1
51227;BME280;42714;48.260;10.980;2024-01-30T04:44:28;984.4;;;-1.2;97.2
51227;BME280;42714;48.260;10.980;2024-01-30T04:49:29;984.5;;;-1.2;97.3
51227;BME280;42714;48.260;10.980;2024-01-30T04:54:30;984.5;;;-1.1;97.4
51227;BME280;42714;48.260;10.980;2024-01-30T04:59:31;984.5;;;-1.1;97.0
51227;BME280;42714;48.260;10.980;2024-01-30T05:04:32;984.5;;;-1.2;96.7
51227;BME280;42714;48.260;10.980;2024-01-30T05:09:33;984.5;;;-1.2;96.8
51227;BME280;42714;48.260;10.980;2024-01-30T05:14:34;984.4;;;-1.2;96.8
51227;BME280;42714;48.260;10.980;2024-01-30T05:19:35;984.5;;;-1.3;96.7
51227;BME280;42714;48.260;10.980;2024-01-30T05:24:36;984.5;;;-1.2;96.9
51227;BME280;42714;48.260;10.980;2024-01-30T05:29:37;984.5;;;-1.2;97.0
51227;BME280;42714;48.260;10.980;2024-01-30T05:34:38;984.5;;;-1.2;97.0
51227;BME280;42714;48.260;10.980;2024-01-30T05:39:39;984.6;;;-1.2;96.9
51227;BME280;42714;48.260;10.980;2024-01-30T05:44:40;984.6;;;-1.2;96.6
51227;BME280;42714;48.260;10.980;2024-01-30T05:49:41;984.6;;;-1.3;96.4
51227;BME280;42714;48.260;10.980;2024-01-30T05:54:42;984.6;;;-1.3;96.2
51227;BME280;42714;48.260;10.980;2024-01-30T05:59:44;984.6;;;-1.4;96.3
51227;BME280;42714;48.260;10.980;2024-01-30T06:04:44;984.7;;;-1.4;96.4
51227;BME280;42714;48.260;10.980;2024-01-30T06:09:45;984.7;;;-1.3;96.4
51227;BME280;42714;48.260;10.980;2024-01-30T06:14:46;984.7;;;-1.4;96.2
51227;BME280;42714;48.260;10.980;2024-01-30T06:19:47;984.7;;;-1.4;95.9
51227;BME280;42714;48.260;10.980;2024-01-30T06:24:48;984.8;;;-1.5;95.8
51227;BME280;42714;48.260;10.980;2024-01-30T06:29:49;984.8;;;-1.5;95.6
51227;BME280;42714;48.260;10.980;2024-01-30T06:34:50;984.8;;;-1.5;95.5
51227;BME280;42714;48.260;10.980;2024-01-30T06:39:51;984.8;;;-1.5;95.4
51227;BME280;42714;48.260;10.980;2024-01-30T06:44:52;984.9;;;-1.5;95.3
51227;BME280;42714;48.260;10.980;2024-01-30T06:49:53;984.9;;;-1.5;95.2
51227;BME280;42714;48.260;10.980;2024-01-30T06:54:54;984.9;;;-1.4;95.3
51227;BME280;42714;48.260;10.980;2024-01-30T06:59:55;984.9;;;-1.3;95.4
51227;BME280;42714;48.260;10.980;2024-01-30T07:04:56;984.9;;;-1.3;95.4
51227;BME280;42714;48.260;10.980;2024-01-30T07:09:57;984.9;;;-1.1;95.5
51227;BME280;42714;48.260;10.980;2024-01-30T07:14:58;984.9;;;-1.0;95.5
51227;BME280;42714;48.260;10.980;2024-01-30T07:19:59;984.9;;;-0.9;95.7
51227;BME280;42714;48.260;10.980;2024-01-30T07:25:00;984.9;;;-0.5;95.8
51227;BME280;42714;48.260;10.980;2024-01-30T07:30:01;984.9;;;0.5;96.4
51227;BME280;42714;48.260;10.980;2024-01-30T07:45:05;984.9;;;3.9;97.1
51227;BME280;42714;48.260;10.980;2024-01-30T07:55:06;984.9;;;6.0;77.1
51227;BME280;42714;48.260;10.980;2024-01-30T08:05:08;984.9;;;7.4;62.6
51227;BME280;42714;48.260;10.980;2024-01-30T08:10:11;984.9;;;8.3;57.9
51227;BME280;42714;48.260;10.980;2024-01-30T08:15:11;984.8;;;9.2;53.9
51227;BME280;42714;48.260;10.980;2024-01-30T08:20:12;984.8;;;10.0;50.2
51227;BME280;42714;48.260;10.980;2024-01-30T08:25:12;984.9;;;10.7;48.2
51227;BME280;42714;48.260;10.980;2024-01-30T08:30:14;984.8;;;11.3;46.5
51227;BME280;42714;48.260;10.980;2024-01-30T08:35:14;984.9;;;11.9;44.5
51227;BME280;42714;48.260;10.980;2024-01-30T08:40:16;984.8;;;12.3;42.7
51227;BME280;42714;48.260;10.980;2024-01-30T08:45:16;984.9;;;13.0;39.9
51227;BME280;42714;48.260;10.980;2024-01-30T08:50:18;984.9;;;12.9;39.6
51227;BME280;42714;48.260;10.980;2024-01-30T08:55:19;984.9;;;13.4;38.7
51227;BME280;42714;48.260;10.980;2024-01-30T09:00:20;984.9;;;13.7;39.1
51227;BME280;42714;48.260;10.980;2024-01-30T09:05:21;984.9;;;14.1;39.2
51227;BME280;42714;48.260;10.980;2024-01-30T09:10:22;984.9;;;14.1;39.7
51227;BME280;42714;48.260;10.980;2024-01-30T09:15:23;984.9;;;14.0;39.1
51227;BME280;42714;48.260;10.980;2024-01-30T09:20:24;984.9;;;14.4;38.2
51227;BME280;42714;48.260;10.980;2024-01-30T09:25:25;984.9;;;14.6;37.6
51227;BME280;42714;48.260;10.980;2024-01-30T09:30:26;984.8;;;15.3;36.3
51227;BME280;42714;48.260;10.980;2024-01-30T09:35:27;984.8;;;15.2;36.9
51227;BME280;42714;48.260;10.980;2024-01-30T09:40:28;984.9;;;15.8;36.7
51227;BME280;42714;48.260;10.980;2024-01-30T09:45:29;984.9;;;15.7;36.3
51227;BME280;42714;48.260;10.980;2024-01-30T09:50:30;984.8;;;16.1;36.1
51227;BME280;42714;48.260;10.980;2024-01-30T09:55:31;984.9;;;15.6;35.8
51227;BME280;42714;48.260;10.980;2024-01-30T10:00:32;984.8;;;16.3;34.3
51227;BME280;42714;48.260;10.980;2024-01-30T10:05:33;984.8;;;15.9;35.5
51227;BME280;42714;48.260;10.980;2024-01-30T10:10:34;984.8;;;16.6;34.5
51227;BME280;42714;48.260;10.980;2024-01-30T10:15:35;984.7;;;17.7;32.9
51227;BME280;42714;48.260;10.980;2024-01-30T10:20:36;984.7;;;18.8;30.6
51227;BME280;42714;48.260;10.980;2024-01-30T10:25:37;984.7;;;17.0;32.6
51227;BME280;42714;48.260;10.980;2024-01-30T10:30:38;984.7;;;15.3;35.8
51227;BME280;42714;48.260;10.980;2024-01-30T10:35:39;984.7;;;14.5;37.9
51227;BME280;42714;48.260;10.980;2024-01-30T10:40:40;984.6;;;14.3;37.9
51227;BME280;42714;48.260;10.980;2024-01-30T10:45:41;984.6;;;14.3;37.9
51227;BME280;42714;48.260;10.980;2024-01-30T10:50:42;984.5;;;14.4;38.2
51227;BME280;42714;48.260;10.980;2024-01-30T10:55:43;984.5;;;14.1;38.8
51227;BME280;42714;48.260;10.980;2024-01-30T11:00:44;984.4;;;13.8;39.9
51227;BME280;42714;48.260;10.980;2024-01-30T11:05:48;984.3;;;13.6;40.4
51227;BME280;42714;48.260;10.980;2024-01-30T11:10:46;984.3;;;13.2;41.3
51227;BME280;42714;48.260;10.980;2024-01-30T11:15:47;984.3;;;13.1;42.0
51227;BME280;42714;48.260;10.980;2024-01-30T11:20:48;984.3;;;13.0;43.1
51227;BME280;42714;48.260;10.980;2024-01-30T11:25:49;984.3;;;13.1;42.8
51227;BME280;42714;48.260;10.980;2024-01-30T11:30:50;984.3;;;13.5;42.5
51227;BME280;42714;48.260;10.980;2024-01-30T11:35:51;984.2;;;13.7;42.8
51227;BME280;42714;48.260;10.980;2024-01-30T11:40:52;984.2;;;14.4;42.1
51227;BME280;42714;48.260;10.980;2024-01-30T11:45:53;984.1;;;15.4;39.9
51227;BME280;42714;48.260;10.980;2024-01-30T11:50:54;984.1;;;16.3;38.3
51227;BME280;42714;48.260;10.980;2024-01-30T11:55:55;984.1;;;16.3;38.2
51227;BME280;42714;48.260;10.980;2024-01-30T12:00:56;984.0;;;15.6;39.5
51227;BME280;42714;48.260;10.980;2024-01-30T12:05:57;984.0;;;15.4;41.0
51227;BME280;42714;48.260;10.980;2024-01-30T12:10:58;983.9;;;15.4;40.3
51227;BME280;42714;48.260;10.980;2024-01-30T12:15:59;983.9;;;15.3;40.3
51227;BME280;42714;48.260;10.980;2024-01-30T12:21:00;983.8;;;15.1;40.2
51227;BME280;42714;48.260;10.980;2024-01-30T12:26:01;983.8;;;15.2;39.5
51227;BME280;42714;48.260;10.980;2024-01-30T12:31:02;983.8;;;15.5;39.2
51227;BME280;42714;48.260;10.980;2024-01-30T12:36:03;983.8;;;15.7;38.5
51227;BME280;42714;48.260;10.980;2024-01-30T12:41:04;983.7;;;16.2;37.9
51227;BME280;42714;48.260;10.980;2024-01-30T12:46:05;983.7;;;17.2;35.9
51227;BME280;42714;48.260;10.980;2024-01-30T12:51:06;983.7;;;17.8;35.2
51227;BME280;42714;48.260;10.980;2024-01-30T12:56:07;983.6;;;17.9;35.0
51227;BME280;42714;48.260;10.980;2024-01-30T13:01:08;983.6;;;17.3;36.3
51227;BME280;42714;48.260;10.980;2024-01-30T13:06:09;983.6;;;16.8;36.4
51227;BME280;42714;48.260;10.980;2024-01-30T13:11:10;983.5;;;16.3;37.2
51227;BME280;42714;48.260;10.980;2024-01-30T13:16:11;983.5;;;15.9;38.8
51227;BME280;42714;48.260;10.980;2024-01-30T13:21:12;983.6;;;15.7;39.1
51227;BME280;42714;48.260;10.980;2024-01-30T13:26:13;983.6;;;15.7;40.2
51227;BME280;42714;48.260;10.980;2024-01-30T13:31:14;983.6;;;15.7;40.4
51227;BME280;42714;48.260;10.980;2024-01-30T13:36:15;983.6;;;15.6;41.4
51227;BME280;42714;48.260;10.980;2024-01-30T13:41:16;983.6;;;15.5;40.7
51227;BME280;42714;48.260;10.980;2024-01-30T13:46:17;983.7;;;15.3;40.5
51227;BME280;42714;48.260;10.980;2024-01-30T13:51:18;983.7;;;15.1;40.8
51227;BME280;42714;48.260;10.980;2024-01-30T13:56:19;983.7;;;15.5;41.3
51227;BME280;42714;48.260;10.980;2024-01-30T14:01:20;983.7;;;15.8;40.5
51227;BME280;42714;48.260;10.980;2024-01-30T14:06:21;983.7;;;16.0;40.4
51227;BME280;42714;48.260;10.980;2024-01-30T14:11:22;983.7;;;16.9;38.7
51227;BME280;42714;48.260;10.980;2024-01-30T14:16:23;983.7;;;17.9;35.8
51227;BME280;42714;48.260;10.980;2024-01-30T14:21:24;983.6;;;18.3;34.7
51227;BME280;42714;48.260;10.980;2024-01-30T14:26:25;983.6;;;18.3;35.1
51227;BME280;42714;48.260;10.980;2024-01-30T14:31:26;983.6;;;17.6;36.0
51227;BME280;42714;48.260;10.980;2024-01-30T14:36:27;983.6;;;17.2;36.7
51227;BME280;42714;48.260;10.980;2024-01-30T14:41:28;983.6;;;16.8;35.0
51227;BME280;42714;48.260;10.980;2024-01-30T17:43:08;985.4;;;3.5;87.1
51227;BME280;42714;48.260;10.980;2024-01-30T17:48:09;985.5;;;3.6;89.8
51227;BME280;42714;48.260;10.980;2024-01-30T17:53:10;985.5;;;3.9;92.1
51227;BME280;42714;48.260;10.980;2024-01-30T17:58:11;985.5;;;4.1;92.4
51227;BME280;42714;48.260;10.980;2024-01-30T18:03:12;985.5;;;4.3;91.6
51227;BME280;42714;48.260;10.980;2024-01-30T18:08:13;985.5;;;4.5;90.3
51227;BME280;42714;48.260;10.980;2024-01-30T18:13:14;985.5;;;4.6;88.4
51227;BME280;42714;48.260;10.980;2024-01-30T18:18:15;985.5;;;4.7;86.6
51227;BME280;42714;48.260;10.980;2024-01-30T18:23:16;985.5;;;4.7;85.7
51227;BME280;42714;48.260;10.980;2024-01-30T18:28:17;985.5;;;4.7;84.9
51227;BME280;42714;48.260;10.980;2024-01-30T18:33:18;985.6;;;4.7;83.7
51227;BME280;42714;48.260;10.980;2024-01-30T18:38:19;985.7;;;4.8;82.8
51227;BME280;42714;48.260;10.980;2024-01-30T18:43:20;985.7;;;4.8;82.3
51227;BME280;42714;48.260;10.980;2024-01-30T18:48:21;985.7;;;4.7;82.2
51227;BME280;42714;48.260;10.980;2024-01-30T18:53:22;985.7;;;4.7;81.9
51227;BME280;42714;48.260;10.980;2024-01-30T18:58:23;985.7;;;4.7;81.1
51227;BME280;42714;48.260;10.980;2024-01-30T19:03:24;985.7;;;4.7;80.8
51227;BME280;42714;48.260;10.980;2024-01-30T19:08:25;985.7;;;4.7;80.4
51227;BME280;42714;48.260;10.980;2024-01-30T19:13:26;985.7;;;4.7;79.3
51227;BME280;42714;48.260;10.980;2024-01-30T19:18:27;985.8;;;4.6;78.8
51227;BME280;42714;48.260;10.980;2024-01-30T19:23:28;985.8;;;4.6;79.0
51227;BME280;42714;48.260;10.980;2024-01-30T19:28:29;985.8;;;4.5;79.2
51227;BME280;42714;48.260;10.980;2024-01-30T19:33:30;985.9;;;4.3;79.5
51227;BME280;42714;48.260;10.980;2024-01-30T19:38:31;985.9;;;4.3;79.6
51227;BME280;42714;48.260;10.980;2024-01-30T19:43:33;985.9;;;4.1;80.0
51227;BME280;42714;48.260;10.980;2024-01-30T19:48:33;985.9;;;4.1;80.2
51227;BME280;42714;48.260;10.980;2024-01-30T19:53:34;985.9;;;4.2;79.5
51227;BME280;42714;48.260;10.980;2024-01-30T19:58:35;985.9;;;4.3;77.9
51227;BME280;42714;48.260;10.980;2024-01-30T20:03:36;986.0;;;4.3;77.2
51227;BME280;42714;48.260;10.980;2024-01-30T20:08:37;986.1;;;4.4;76.6
51227;BME280;42714;48.260;10.980;2024-01-30T20:13:39;986.1;;;4.3;76.3
51227;BME280;42714;48.260;10.980;2024-01-30T20:18:39;986.1;;;4.2;76.4
51227;BME280;42714;48.260;10.980;2024-01-30T20:23:40;986.1;;;4.1;76.8
51227;BME280;42714;48.260;10.980;2024-01-30T20:28:42;986.1;;;4.2;76.8
51227;BME280;42714;48.260;10.980;2024-01-30T20:33:43;986.1;;;4.2;76.9
51227;BME280;42714;48.260;10.980;2024-01-30T20:38:44;986.1;;;4.1;77.1
51227;BME280;42714;48.260;10.980;2024-01-30T20:43:44;986.2;;;4.1;77.4
51227;BME280;42714;48.260;10.980;2024-01-30T20:48:46;986.2;;;4.1;77.5
51227;BME280;42714;48.260;10.980;2024-01-30T20:53:47;986.1;;;4.1;77.5
51227;BME280;42714;48.260;10.980;2024-01-30T20:58:48;986.2;;;4.1;77.5
51227;BME280;42714;48.260;10.980;2024-01-30T21:03:49;986.2;;;4.1;77.7
51227;BME280;42714;48.260;10.980;2024-01-30T21:08:50;986.3;;;4.1;77.8
51227;BME280;42714;48.260;10.980;2024-01-30T21:13:51;986.3;;;4.1;77.7
51227;BME280;42714;48.260;10.980;2024-01-30T21:18:52;986.3;;;4.2;77.3
51227;BME280;42714;48.260;10.980;2024-01-30T21:23:53;986.2;;;4.3;77.0
51227;BME280;42714;48.260;10.980;2024-01-30T21:28:54;986.2;;;4.3;76.6
51227;BME280;42714;48.260;10.980;2024-01-30T21:33:55;986.2;;;4.5;75.9
51227;BME280;42714;48.260;10.980;2024-01-30T21:38:56;986.1;;;4.4;75.9
51227;BME280;42714;48.260;10.980;2024-01-30T21:43:57;986.1;;;4.4;76.4
51227;BME280;42714;48.260;10.980;2024-01-30T21:48:58;986.2;;;4.4;76.0
51227;BME280;42714;48.260;10.980;2024-01-30T21:53:59;986.2;;;4.3;76.0
51227;BME280;42714;48.260;10.980;2024-01-30T21:59:00;986.2;;;4.4;76.0
51227;BME280;42714;48.260;10.980;2024-01-30T22:04:01;986.2;;;4.4;75.9
51227;BME280;42714;48.260;10.980;2024-01-30T22:09:02;986.2;;;4.3;75.7
51227;BME280;42714;48.260;10.980;2024-01-30T22:14:03;986.2;;;4.3;75.8
51227;BME280;42714;48.260;10.980;2024-01-30T22:19:04;986.1;;;4.5;75.3
51227;BME280;42714;48.260;10.980;2024-01-30T22:29:06;986.2;;;4.6;74.7
51227;BME280;42714;48.260;10.980;2024-01-30T22:34:07;986.2;;;4.7;74.1
51227;BME280;42714;48.260;10.980;2024-01-30T22:39:08;986.1;;;4.8;73.3
51227;BME280;42714;48.260;10.980;2024-01-30T22:44:09;986.1;;;4.8;73.1
51227;BME280;42714;48.260;10.980;2024-01-30T22:49:10;986.1;;;4.8;73.1
51227;BME280;42714;48.260;10.980;2024-01-30T22:54:11;986.1;;;4.9;72.8
51227;BME280;42714;48.260;10.980;2024-01-30T22:59:12;986.0;;;4.8;73.1
51227;BME280;42714;48.260;10.980;2024-01-30T23:04:13;986.1;;;4.8;73.3
51227;BME280;42714;48.260;10.980;2024-01-30T23:09:14;986.2;;;4.8;73.5
51227;BME280;42714;48.260;10.980;2024-01-30T23:14:15;986.3;;;4.8;73.5
51227;BME280;42714;48.260;10.980;2024-01-30T23:19:16;986.4;;;4.8;73.6
51227;BME280;42714;48.260;10.980;2024-01-30T23:24:17;986.4;;;5.0;73.3
51227;BME280;42714;48.260;10.980;2024-01-30T23:29:18;986.3;;;5.2;72.8
51227;BME280;42714;48.260;10.980;2024-01-30T23:34:19;986.4;;;5.1;72.5
51227;BME280;42714;48.260;10.980;2024-01-30T23:39:20;986.4;;;5.1;72.2
51227;BME280;42714;48.260;10.980;2024-01-30T23:44:21;986.4;;;5.1;72.3
51227;BME280;42714;48.260;10.980;2024-01-30T23:49:22;986.4;;;5.0;72.4
51227;BME280;42714;48.260;10.980;2024-01-30T23:54:23;986.3;;;5.0;72.7
51227;BME280;42714;48.260;10.980;2024-01-30T23:59:24;986.3;;;5.0;72.7
